Main page
METAR-TAF:

METAR-TAF

Airports :

Farnborough Airport

Farnborough, England

latitude: 51-17N, longitude: 000-46W, elevation: 65 m

Current weather observation

The report was made 33 minutes ago, at 19:20 UTC
Wind 11 kt from the West
Temperature 7°C
Humidity 87%
Pressure 1024 hPa
Visibility 10 km or more
Scattered clouds at a height of 1500 ft

METAR: EGLF 291920Z 26011KT 9999 SCT015 07/05 Q1024

Time: 19:53 (19:53 UTC)

Forecast

The report was made 2 hours and 55 minutes ago, at 16:58 UTC
Forecast valid from 29 at 18 UTC to 29 at 20 UTC
Wind 8 kt from the West/Southwest
Visibility 10 km or more
Broken clouds at a height of 1400 ft
Becoming
from 29 at 18 UTC to 29 at 20 UTC
Scattered clouds at a height of 2000 ft

TAF: EGLF 291658Z 2918/2920 24008KT 9999 BKN014 BECMG 2918/2920 SCT020

Weather observations and forecasts of more than 4000 airports (METAR and TAF reports).

The available stations are represented by yellow and red dots on the map.

Hover mouse over dot to see the name of the station.

Then click to see weather observations and forecasts.

To change the map : click on the green buttons with a black cross to zoom in, on the green button with a dash to zoom out, or on the green arrows for adjacent maps.


METAR-TAF: